KSDA

Shenandoah Municipal Airport

Shenandoah, Iowa, USA
METAR KSDA 100655Z AUTO 00000KT 3SM BR BKN002 M13/M14 A3034 RMK AO2
Observed Flight Rules
Dec-10 @ 06:55 UTC (26 minutes ago) Instrument Flight Rules
Visibility Clouds Conditions
3 miles
  • Broken at 200' AGL
  • Mist
Temperatures Readings
Current -13°C / 9°F
Dewpoint -14°C / 7°F
Humidity 92%
Altimeter 30.34" Hg
Pressure 1027 hPa
Elevation 296
METAR KSDA 100655Z AUTO 00000KT 3SM BR BKN002 M13/M14 A3034 RMK AO2
Observed Flight Rules
Dec-10 @ 06:55 UTC
(26 minutes ago)
LIFR
Clouds
  • Broken at 200' AGL
Conditions
  • Mist
Temperature Dewpoint
-13°C / 9°F -14°C / 7°F
Humidity Altimeter Pressure
92% 30.34" Hg 1027 hPa